DAL28 WSSS-KLAX
Flight info
| Callsign | DAL28 |
|---|---|
| Flight time | N/A |
| Altitude | 32000 |
| Route | TOMAN3A TOMAN L625 AKMON/K0941F320 L625 ANOKI/N0504F320 L625 ARESI/N0500F350 L625 MEVIN B462 KAZIK Y59 AZAMA Y57 YULIA/N0487F370 Y57 POROT OTR11 AVBET DCT 38N150E 41N160E 42N170E 43N180E/N0473F390 44N170W 44N160W 43N150W 41N140W/N0482F410 38N130W DCT ALLBE DCT PIRAT DCT BURGL IRNMN2 |
| Aircraft | A359/H-SDE2E3GHIJ3J4J5LM1ORWXY/LB1D1 |
Departure
| Time | N/A |
|---|---|
| Airport | Singapore Changi Airport (WSSS) |
Arrival
| Time | 2026-04-26 01:26 |
|---|---|
| Airport | Los Angeles International Airport (KLAX) |
| Time | Latitude | Longitude | Altitude | Speed | Heading |
|---|---|---|---|---|---|
| 2026-04-26 00:57 | 35.47102 | -119.96077 | 38458 ft | 473 kts | 155° |
| 2026-04-26 00:58 | 35.44302 | -119.93977 | 38203 ft | 472 kts | 155° |
| 2026-04-26 00:58 | 35.41506 | -119.91880 | 37943 ft | 471 kts | 155° |
| 2026-04-26 00:58 | 35.38709 | -119.89783 | 37684 ft | 470 kts | 155° |
| 2026-04-26 00:58 | 35.35929 | -119.87698 | 37180 ft | 466 kts | 155° |
| 2026-04-26 00:59 | 35.33169 | -119.85632 | 36586 ft | 464 kts | 155° |
| 2026-04-26 00:59 | 35.30450 | -119.83598 | 35940 ft | 464 kts | 155° |
| 2026-04-26 00:59 | 35.27762 | -119.81370 | 35295 ft | 467 kts | 150° |
| 2026-04-26 00:59 | 35.25170 | -119.78973 | 34712 ft | 466 kts | 149° |
| 2026-04-26 01:00 | 35.22604 | -119.76569 | 34167 ft | 463 kts | 149° |
| 2026-04-26 01:00 | 35.20442 | -119.74540 | 33751 ft | 459 kts | 149° |
| 2026-04-26 01:00 | 35.17913 | -119.72171 | 33240 ft | 455 kts | 149° |
| 2026-04-26 01:00 | 35.15417 | -119.69838 | 32771 ft | 450 kts | 149° |
| 2026-04-26 01:01 | 35.12938 | -119.67525 | 32277 ft | 446 kts | 150° |
| 2026-04-26 01:01 | 35.10485 | -119.65238 | 31765 ft | 442 kts | 149° |
| 2026-04-26 01:01 | 35.08047 | -119.62969 | 31251 ft | 439 kts | 150° |
| 2026-04-26 01:01 | 35.05628 | -119.60718 | 30761 ft | 435 kts | 149° |
| 2026-04-26 01:02 | 35.03238 | -119.58495 | 30268 ft | 431 kts | 150° |
| 2026-04-26 01:02 | 35.00863 | -119.56288 | 29769 ft | 427 kts | 149° |
| 2026-04-26 01:02 | 34.98511 | -119.54106 | 29248 ft | 423 kts | 150° |
| 2026-04-26 01:02 | 34.96175 | -119.51941 | 28740 ft | 420 kts | 150° |
| 2026-04-26 01:03 | 34.93857 | -119.49793 | 28243 ft | 417 kts | 150° |
| 2026-04-26 01:03 | 34.91674 | -119.47772 | 27783 ft | 414 kts | 150° |
| 2026-04-26 01:03 | 34.89376 | -119.45678 | 27300 ft | 410 kts | 151° |
| 2026-04-26 01:03 | 34.87085 | -119.43633 | 26773 ft | 407 kts | 151° |
| 2026-04-26 01:04 | 34.84803 | -119.41598 | 26259 ft | 405 kts | 151° |
| 2026-04-26 01:04 | 34.82550 | -119.39587 | 25916 ft | 399 kts | 151° |
| 2026-04-26 01:04 | 34.80314 | -119.37592 | 25660 ft | 399 kts | 151° |
| 2026-04-26 01:04 | 34.78073 | -119.35595 | 25402 ft | 399 kts | 151° |
| 2026-04-26 01:05 | 34.75840 | -119.33602 | 25171 ft | 395 kts | 151° |
| 2026-04-26 01:05 | 34.73673 | -119.31673 | 24842 ft | 388 kts | 152° |
| 2026-04-26 01:05 | 34.71466 | -119.29743 | 24387 ft | 384 kts | 152° |
| 2026-04-26 01:05 | 34.69302 | -119.27857 | 23910 ft | 381 kts | 152° |
| 2026-04-26 01:06 | 34.67159 | -119.25989 | 23431 ft | 378 kts | 152° |
| 2026-04-26 01:06 | 34.65064 | -119.24162 | 22985 ft | 372 kts | 152° |
| 2026-04-26 01:06 | 34.62957 | -119.22336 | 22521 ft | 370 kts | 152° |
| 2026-04-26 01:06 | 34.60867 | -119.20536 | 22064 ft | 367 kts | 152° |
| 2026-04-26 01:07 | 34.58785 | -119.18743 | 21597 ft | 366 kts | 152° |
| 2026-04-26 01:07 | 34.56711 | -119.16959 | 21136 ft | 364 kts | 152° |
| 2026-04-26 01:07 | 34.54661 | -119.15184 | 20685 ft | 361 kts | 152° |
| 2026-04-26 01:07 | 34.52639 | -119.13384 | 20240 ft | 359 kts | 151° |
| 2026-04-26 01:08 | 34.50630 | -119.11596 | 19785 ft | 357 kts | 151° |
| 2026-04-26 01:08 | 34.48631 | -119.09821 | 19329 ft | 355 kts | 151° |
| 2026-04-26 01:08 | 34.46644 | -119.08058 | 18887 ft | 353 kts | 151° |
| 2026-04-26 01:08 | 34.44661 | -119.06307 | 18460 ft | 352 kts | 151° |
| 2026-04-26 01:09 | 34.42684 | -119.04573 | 18017 ft | 350 kts | 151° |
| 2026-04-26 01:09 | 34.40710 | -119.02864 | 17576 ft | 347 kts | 151° |
| 2026-04-26 01:09 | 34.38749 | -119.01168 | 17138 ft | 346 kts | 151° |
| 2026-04-26 01:09 | 34.36797 | -118.99482 | 16698 ft | 344 kts | 151° |
| 2026-04-26 01:10 | 34.34857 | -118.97805 | 16261 ft | 341 kts | 151° |
| 2026-04-26 01:10 | 34.32932 | -118.96134 | 15817 ft | 341 kts | 150° |
| 2026-04-26 01:10 | 34.31040 | -118.94415 | 15385 ft | 339 kts | 149° |
| 2026-04-26 01:10 | 34.29164 | -118.92693 | 14961 ft | 337 kts | 149° |
| 2026-04-26 01:11 | 34.27320 | -118.91009 | 14536 ft | 335 kts | 149° |
| 2026-04-26 01:11 | 34.25473 | -118.89327 | 14230 ft | 328 kts | 149° |
| 2026-04-26 01:11 | 34.23691 | -118.87696 | 14110 ft | 314 kts | 149° |
| 2026-04-26 01:11 | 34.21993 | -118.86122 | 14007 ft | 301 kts | 149° |
| 2026-04-26 01:12 | 34.20351 | -118.84605 | 13767 ft | 295 kts | 149° |
| 2026-04-26 01:12 | 34.18721 | -118.83110 | 13418 ft | 294 kts | 149° |
| 2026-04-26 01:12 | 34.17100 | -118.81626 | 13083 ft | 292 kts | 149° |
| 2026-04-26 01:12 | 34.15498 | -118.80130 | 12753 ft | 293 kts | 146° |
| 2026-04-26 01:13 | 34.13962 | -118.78465 | 12430 ft | 300 kts | 143° |
| 2026-04-26 01:13 | 34.12432 | -118.76743 | 12090 ft | 300 kts | 143° |
| 2026-04-26 01:13 | 34.10908 | -118.75031 | 11768 ft | 299 kts | 143° |
| 2026-04-26 01:13 | 34.09380 | -118.73341 | 11507 ft | 293 kts | 143° |
| 2026-04-26 01:14 | 34.07890 | -118.71709 | 11272 ft | 285 kts | 143° |
| 2026-04-26 01:14 | 34.06421 | -118.70132 | 11086 ft | 282 kts | 145° |
| 2026-04-26 01:14 | 34.04944 | -118.68565 | 10666 ft | 284 kts | 143° |
| 2026-04-26 01:14 | 34.03574 | -118.66845 | 10412 ft | 288 kts | 130° |
| 2026-04-26 01:15 | 34.02767 | -118.64623 | 10032 ft | 294 kts | 104° |
| 2026-04-26 01:15 | 34.02478 | -118.62172 | 9585 ft | 297 kts | 98° |
| 2026-04-26 01:15 | 34.02343 | -118.60532 | 9337 ft | 295 kts | 97° |
| 2026-04-26 01:15 | 34.02142 | -118.58091 | 8986 ft | 292 kts | 97° |
| 2026-04-26 01:16 | 34.01934 | -118.55676 | 8645 ft | 287 kts | 97° |
| 2026-04-26 01:16 | 34.01719 | -118.53304 | 8341 ft | 283 kts | 97° |
| 2026-04-26 01:16 | 34.01502 | -118.50950 | 8022 ft | 282 kts | 97° |
| 2026-04-26 01:16 | 34.01286 | -118.48605 | 7714 ft | 281 kts | 98° |
| 2026-04-26 01:17 | 34.01104 | -118.46266 | 7390 ft | 280 kts | 93° |
| 2026-04-26 01:17 | 34.01298 | -118.43927 | 7085 ft | 280 kts | 80° |
| 2026-04-26 01:17 | 34.01685 | -118.41635 | 6765 ft | 279 kts | 78° |
| 2026-04-26 01:17 | 34.02094 | -118.39349 | 6384 ft | 278 kts | 78° |
| 2026-04-26 01:18 | 34.02490 | -118.37101 | 6022 ft | 275 kts | 79° |
| 2026-04-26 01:18 | 34.02868 | -118.34919 | 5784 ft | 257 kts | 80° |
| 2026-04-26 01:18 | 34.03111 | -118.32837 | 5459 ft | 245 kts | 85° |
| 2026-04-26 01:18 | 34.03290 | -118.30808 | 5055 ft | 244 kts | 85° |
| 2026-04-26 01:19 | 34.03473 | -118.28789 | 4788 ft | 240 kts | 84° |
| 2026-04-26 01:19 | 34.03680 | -118.26805 | 4487 ft | 239 kts | 83° |
| 2026-04-26 01:19 | 34.03896 | -118.24829 | 4172 ft | 237 kts | 83° |
| 2026-04-26 01:19 | 34.04115 | -118.22861 | 3997 ft | 236 kts | 83° |
| 2026-04-26 01:20 | 34.04336 | -118.20897 | 3967 ft | 238 kts | 83° |
| 2026-04-26 01:20 | 34.04342 | -118.18894 | 3546 ft | 241 kts | 106° |
| 2026-04-26 01:20 | 34.03559 | -118.17174 | 3297 ft | 231 kts | 138° |
| 2026-04-26 01:20 | 34.02216 | -118.16226 | 3017 ft | 221 kts | 167° |
| 2026-04-26 01:21 | 34.00742 | -118.16228 | 2697 ft | 213 kts | 199° |
| 2026-04-26 01:21 | 33.99522 | -118.17169 | 2415 ft | 208 kts | 225° |
| 2026-04-26 01:21 | 33.98572 | -118.18484 | 2114 ft | 208 kts | 231° |
| 2026-04-26 01:21 | 33.97689 | -118.19852 | 1998 ft | 207 kts | 235° |
| 2026-04-26 01:22 | 33.97151 | -118.21435 | 1995 ft | 201 kts | 257° |
| 2026-04-26 01:22 | 33.96954 | -118.23082 | 2019 ft | 197 kts | 263° |
| 2026-04-26 01:22 | 33.96811 | -118.24691 | 2001 ft | 186 kts | 262° |
| 2026-04-26 01:22 | 33.96662 | -118.26162 | 2028 ft | 169 kts | 261° |
| 2026-04-26 01:23 | 33.96521 | -118.27507 | 2010 ft | 154 kts | 261° |
| 2026-04-26 01:23 | 33.96393 | -118.28729 | 1983 ft | 140 kts | 261° |
| 2026-04-26 01:23 | 33.96275 | -118.29851 | 1806 ft | 132 kts | 261° |
| 2026-04-26 01:23 | 33.96163 | -118.30937 | 1632 ft | 130 kts | 261° |
| 2026-04-26 01:24 | 33.96052 | -118.32018 | 1449 ft | 130 kts | 261° |
| 2026-04-26 01:24 | 33.95941 | -118.33103 | 1280 ft | 131 kts | 261° |
| 2026-04-26 01:24 | 33.95826 | -118.34186 | 1078 ft | 130 kts | 261° |
| 2026-04-26 01:24 | 33.95720 | -118.35265 | 859 ft | 128 kts | 262° |
| 2026-04-26 01:25 | 33.95600 | -118.36322 | 684 ft | 126 kts | 262° |
| 2026-04-26 01:25 | 33.95494 | -118.37374 | 549 ft | 128 kts | 263° |
| 2026-04-26 01:25 | 33.95387 | -118.38435 | 394 ft | 128 kts | 262° |
| 2026-04-26 01:25 | 33.95278 | -118.39501 | 241 ft | 128 kts | 263° |
| 2026-04-26 01:26 | 33.95171 | -118.40572 | 102 ft | 128 kts | 263° |
| 2026-04-26 01:26 | 33.95080 | -118.41472 | 103 ft | 87 kts | 263° |
| 2026-04-26 01:26 | 33.95026 | -118.42009 | 100 ft | 43 kts | 263° |
| 2026-04-26 01:26 | 33.94995 | -118.42249 | 100 ft | 22 kts | 251° |
| 2026-04-26 01:27 | 33.94931 | -118.42386 | 102 ft | 14 kts | 231° |
| 2026-04-26 01:27 | 33.94887 | -118.42442 | 105 ft | 3 kts | 223° |
| 2026-04-26 01:27 | 33.94886 | -118.42443 | 101 ft | 0 kts | 223° |
| 2026-04-26 01:29 | 33.94879 | -118.42450 | 101 ft | 5 kts | 220° |
| 2026-04-26 01:29 | 33.94824 | -118.42484 | 104 ft | 12 kts | 194° |
| 2026-04-26 01:29 | 33.94740 | -118.42484 | 105 ft | 13 kts | 174° |
| 2026-04-26 01:30 | 33.94668 | -118.42463 | 101 ft | 8 kts | 135° |
| 2026-04-26 01:30 | 33.94666 | -118.42390 | 100 ft | 11 kts | 85° |
| 2026-04-26 01:30 | 33.94677 | -118.42287 | 102 ft | 14 kts | 82° |
| 2026-04-26 01:30 | 33.94691 | -118.42154 | 103 ft | 18 kts | 83° |
| 2026-04-26 01:31 | 33.94707 | -118.41997 | 100 ft | 20 kts | 83° |
| 2026-04-26 01:31 | 33.94724 | -118.41816 | 102 ft | 23 kts | 83° |
| 2026-04-26 01:31 | 33.94742 | -118.41633 | 101 ft | 17 kts | 83° |
| 2026-04-26 01:31 | 33.94757 | -118.41493 | 103 ft | 18 kts | 83° |
| 2026-04-26 01:32 | 33.94788 | -118.41334 | 100 ft | 21 kts | 80° |
| 2026-04-26 01:32 | 33.94806 | -118.41152 | 102 ft | 23 kts | 83° |
| 2026-04-26 01:32 | 33.94822 | -118.40990 | 103 ft | 15 kts | 83° |
| 2026-04-26 01:32 | 33.94830 | -118.40921 | 101 ft | 0 kts | 82° |
| 2026-04-26 01:33 | 33.94829 | -118.40904 | 102 ft | 7 kts | 98° |
| 2026-04-26 01:33 | 33.94802 | -118.40881 | 103 ft | 6 kts | 171° |
| 2026-04-26 01:33 | 33.94752 | -118.40898 | 101 ft | 9 kts | 209° |
| 2026-04-26 01:34 | 33.94693 | -118.40909 | 99 ft | 9 kts | 173° |
| 2026-04-26 01:34 | 33.94622 | -118.40898 | 99 ft | 8 kts | 173° |
| 2026-04-26 01:34 | 33.94590 | -118.40894 | 99 ft | 3 kts | 173° |
| 2026-04-26 01:34 | 33.94560 | -118.40896 | 99 ft | 4 kts | 205° |
| 2026-04-26 01:35 | 33.94549 | -118.40926 | 101 ft | 5 kts | 256° |
| 2026-04-26 01:35 | 33.94544 | -118.40973 | 102 ft | 6 kts | 262° |
| 2026-04-26 01:35 | 33.94542 | -118.40992 | 99 ft | 2 kts | 263° |
| 2026-04-26 01:35 | 33.94541 | -118.41004 | 99 ft | 1 kts | 263° |
| 2026-04-26 01:36 | 33.94541 | -118.41006 | 99 ft | 0 kts | 263° |
| 2026-04-26 01:36 | 33.94540 | -118.41009 | 98 ft | 0 kts | 263° |